createdAt,value
2019-04-25T00:04:31.685Z,100260.24
2019-04-25T00:09:37.522Z,100248.02
2019-04-25T00:14:42.482Z,100249.41
2019-04-25T00:19:48.510Z,100250.27
2019-04-25T00:24:53.021Z,100256.34
2019-04-25T00:29:57.414Z,100259.73
2019-04-25T00:35:02.036Z,100267.01
2019-04-25T00:40:06.825Z,100271.67
2019-04-25T00:45:11.869Z,100285.58
2019-04-25T00:50:17.023Z,100285.31
2019-04-25T00:55:28.642Z,100305.81
2019-04-25T01:00:28.363Z,100305.06
2019-04-25T01:05:33.530Z,100303.48
2019-04-25T01:10:37.535Z,100312.88
2019-04-25T01:15:42.525Z,100304.42
2019-04-25T01:20:46.997Z,100304.39
2019-04-25T01:25:51.586Z,100296.09
2019-04-25T01:30:56.280Z,100271.81
2019-04-25T01:36:00.687Z,100290.73
2019-04-25T01:41:09.922Z,100302.81
2019-04-25T01:46:14.881Z,100319.97
2019-04-25T01:51:25.760Z,100316.50
2019-04-25T01:56:29.871Z,100340.61
2019-04-25T02:01:34.144Z,100358.70
2019-04-25T02:06:38.205Z,100365.34
2019-04-25T02:11:43.845Z,100358.06
2019-04-25T02:16:57.571Z,100373.30
2019-04-25T02:22:27.690Z,100381.23
2019-04-25T02:27:31.836Z,100395.22
2019-04-25T02:32:37.094Z,100411.58
2019-04-25T02:37:47.298Z,100422.36
2019-04-25T02:42:51.360Z,100428.82
2019-04-25T02:47:56.642Z,100435.84
2019-04-25T02:53:07.481Z,100442.62
2019-04-25T02:58:18.310Z,100458.81
2019-04-25T03:03:24.454Z,100455.88
2019-04-25T03:08:35.489Z,100454.63
2019-04-25T03:13:45.169Z,100459.70
2019-04-25T03:18:51.015Z,100464.25
2019-04-25T03:23:55.377Z,100456.23
2019-04-25T03:28:59.827Z,100454.16
2019-04-25T03:34:14.053Z,100454.30
2019-04-25T03:39:26.870Z,100473.20
2019-04-25T03:44:39.326Z,100487.90
2019-04-25T03:54:58.588Z,100509.94
2019-04-25T04:05:18.147Z,100541.97
2019-04-25T04:10:23.292Z,100558.19
2019-04-25T04:15:33.574Z,100562.92
2019-04-25T04:20:44.670Z,100566.66
2019-04-25T04:25:48.757Z,100577.34
2019-04-25T04:30:54.072Z,100589.66
2019-04-25T04:36:08.795Z,100592.13
2019-04-25T04:41:20.077Z,100600.22
2019-04-25T04:46:24.526Z,100616.47
2019-04-25T04:51:28.578Z,100620.19
2019-04-25T04:56:34.217Z,100616.48
2019-04-25T05:01:47.642Z,100633.16
2019-04-25T05:06:51.833Z,100630.92
2019-04-25T05:11:55.883Z,100636.81
2019-04-25T05:17:00.496Z,100656.16
2019-04-25T05:22:10.273Z,100676.97
2019-04-25T05:27:33.714Z,100680.19
2019-04-25T05:32:30.733Z,100678.84
2019-04-25T05:37:34.856Z,100702.55
2019-04-25T05:42:39.005Z,100709.62
2019-04-25T05:47:44.286Z,100713.66
2019-04-25T05:52:54.240Z,100709.17
2019-04-25T05:57:58.288Z,100731.55
2019-04-25T06:03:03.624Z,100741.52
2019-04-25T06:08:17.854Z,100748.95
2019-04-25T06:13:24.979Z,100758.59
2019-04-25T06:18:33.864Z,100755.92
2019-04-25T06:23:48.710Z,100751.84
2019-04-25T06:28:58.970Z,100756.36
2019-04-25T06:34:04.553Z,100754.42
2019-04-25T06:39:15.340Z,100760.84
2019-04-25T06:44:20.647Z,100768.05
2019-04-25T06:49:31.404Z,100760.91
2019-04-25T06:54:43.617Z,100766.84
2019-04-25T06:59:56.871Z,100771.48
2019-04-25T07:05:00.965Z,100785.80
2019-04-25T07:10:05.358Z,100791.45
2019-04-25T07:20:45.936Z,100800.28
2019-04-25T07:25:49.995Z,100801.84
2019-04-25T07:30:54.688Z,100813.28
2019-04-25T07:36:09.141Z,100810.97
2019-04-25T07:41:16.348Z,100825.75
2019-04-25T07:46:26.374Z,100831.66
2019-04-25T07:51:36.850Z,100824.47
2019-04-25T07:56:40.956Z,100823.59
2019-04-25T08:01:45.004Z,100830.63
2019-04-25T08:06:49.075Z,100827.09
2019-04-25T08:11:54.896Z,100829.06
2019-04-25T08:28:17.753Z,100842.47
2019-04-25T08:33:23.794Z,100859.62
2019-04-25T08:38:35.218Z,100857.91
2019-04-25T08:43:46.007Z,100858.02
2019-04-25T08:48:50.107Z,100861.64
2019-04-25T08:53:54.252Z,100867.73
2019-04-25T08:59:05.639Z,100865.07
2019-04-25T09:04:09.645Z,100851.70
2019-04-25T09:14:29.854Z,100850.44
2019-04-25T09:19:38.387Z,100842.03
2019-04-25T09:24:44.122Z,100846.30
2019-04-25T09:29:54.259Z,100842.83
2019-04-25T09:40:45.701Z,100834.41
2019-04-25T09:45:56.044Z,100830.72
2019-04-25T09:51:00.073Z,100815.56
2019-04-25T09:56:04.242Z,100811.09
2019-04-25T10:01:10.660Z,100812.03
2019-04-25T10:06:33.326Z,100815.28
2019-04-25T10:11:38.360Z,100816.03
2019-04-25T10:16:44.364Z,100812.48
2019-04-25T10:21:49.658Z,100809.31
2019-04-25T10:26:54.768Z,100784.87
2019-04-25T10:31:59.025Z,100789.33
2019-04-25T10:37:03.461Z,100789.87
2019-04-25T10:42:07.554Z,100786.58
2019-04-25T10:47:11.574Z,100789.54
2019-04-25T10:52:15.749Z,100780.23
2019-04-25T10:57:19.986Z,100780.80
2019-04-25T11:02:24.642Z,100782.48
2019-04-25T11:07:28.706Z,100769.09
2019-04-25T11:12:33.825Z,100767.77
2019-04-25T11:17:38.254Z,100754.11
2019-04-25T11:22:44.624Z,100762.80
2019-04-25T11:27:49.683Z,100761.80
2019-04-25T11:32:54.714Z,100753.45
2019-04-25T11:37:58.722Z,100757.41
2019-04-25T11:43:05.975Z,100738.09
2019-04-25T11:48:09.974Z,100742.75
2019-04-25T11:53:13.968Z,100743.48
2019-04-25T11:58:17.950Z,100743.27
2019-04-25T12:03:23.213Z,100742.82
2019-04-25T12:08:27.696Z,100735.98
2019-04-25T12:13:31.691Z,100737.47
2019-04-25T12:18:35.701Z,100725.78
2019-04-25T12:23:39.781Z,100730.00
2019-04-25T12:28:43.811Z,100729.92
2019-04-25T12:33:49.070Z,100720.12
2019-04-25T12:38:54.533Z,100726.03
2019-04-25T12:43:59.525Z,100722.88
2019-04-25T12:49:03.566Z,100720.09
2019-04-25T12:54:07.854Z,100714.53
2019-04-25T12:59:11.896Z,100707.83
2019-04-25T13:04:15.849Z,100712.02
2019-04-25T13:09:19.859Z,100699.62
2019-04-25T13:14:23.885Z,100692.94
2019-04-25T13:19:27.831Z,100693.70
2019-04-25T13:24:31.856Z,100695.57
2019-04-25T13:29:35.844Z,100688.94
2019-04-25T13:34:39.839Z,100687.80
2019-04-25T13:39:44.232Z,100685.41
2019-04-25T13:44:48.240Z,100680.09
2019-04-25T13:49:52.236Z,100683.15
2019-04-25T13:54:56.245Z,100673.40
2019-04-25T14:00:00.232Z,100662.62
2019-04-25T14:05:05.697Z,100663.73
2019-04-25T14:10:09.740Z,100650.02
2019-04-25T14:15:15.094Z,100649.14
2019-04-25T14:20:20.844Z,100645.09
2019-04-25T14:25:27.197Z,100641.55
2019-04-25T14:30:32.602Z,100641.23
2019-04-25T14:35:37.093Z,100638.36
2019-04-25T14:40:42.330Z,100627.05
2019-04-25T14:45:46.375Z,100621.09
2019-04-25T14:50:50.370Z,100617.88
2019-04-25T14:55:54.706Z,100611.45
2019-04-25T15:00:58.721Z,100606.36
2019-04-25T15:06:02.690Z,100599.91
2019-04-25T15:11:06.672Z,100603.34
2019-04-25T15:16:11.042Z,100590.07
2019-04-25T15:21:15.029Z,100597.12
2019-04-25T15:26:19.396Z,100588.36
2019-04-25T15:31:23.475Z,100580.50
2019-04-25T15:41:42.923Z,100576.61
2019-04-25T15:52:02.358Z,100569.72
2019-04-25T15:57:06.771Z,100567.62
2019-04-25T16:02:10.916Z,100567.50
2019-04-25T16:07:14.904Z,100566.92
2019-04-25T16:12:19.594Z,100566.41
2019-04-25T16:17:23.693Z,100561.61
2019-04-25T16:22:29.042Z,100563.75
2019-04-25T16:27:39.650Z,100553.22
2019-04-25T16:32:43.885Z,100554.47
2019-04-25T16:37:47.917Z,100551.22
2019-04-25T16:42:51.947Z,100552.61
2019-04-25T16:47:57.743Z,100549.25
2019-04-25T16:53:01.834Z,100547.78
2019-04-25T16:58:05.863Z,100550.52
2019-04-25T17:08:26.922Z,100548.34
2019-04-25T17:13:32.137Z,100545.27
2019-04-25T17:18:36.274Z,100550.30
2019-04-25T17:23:40.433Z,100553.36
2019-04-25T17:28:44.896Z,100552.47
2019-04-25T17:33:49.041Z,100543.75
2019-04-25T17:38:53.125Z,100545.53
2019-04-25T17:43:57.269Z,100544.31
2019-04-25T17:49:01.623Z,100543.50
2019-04-25T17:54:05.810Z,100550.16
2019-04-25T17:59:09.977Z,100549.36
2019-04-25T18:04:14.463Z,100545.05
2019-04-25T18:09:18.942Z,100541.75
2019-04-25T18:14:23.160Z,100547.31
2019-04-25T18:19:27.398Z,100548.33
2019-04-25T18:24:31.706Z,100538.84
2019-04-25T18:29:36.074Z,100544.70
2019-04-25T18:34:40.466Z,100541.45
2019-04-25T18:39:46.276Z,100544.06
2019-04-25T18:44:50.634Z,100553.41
2019-04-25T18:49:54.996Z,100546.61
2019-04-25T18:54:59.325Z,100544.23
2019-04-25T19:00:04.232Z,100543.95
2019-04-25T19:05:09.277Z,100542.95
2019-04-25T19:10:15.087Z,100542.63
2019-04-25T19:15:19.491Z,100542.92
2019-04-25T19:20:23.879Z,100543.05
2019-04-25T19:25:28.601Z,100547.55
2019-04-25T19:30:33.145Z,100550.75
2019-04-25T19:35:37.408Z,100545.80
2019-04-25T19:40:42.689Z,100544.41
2019-04-25T19:45:47.488Z,100548.67
2019-04-25T19:50:54.889Z,100555.24
2019-04-25T19:56:00.366Z,100555.16
2019-04-25T20:01:04.903Z,100554.84
2019-04-25T20:06:09.260Z,100554.63
2019-04-25T20:11:13.650Z,100550.93
2019-04-25T20:16:18.056Z,100547.62
2019-04-25T20:21:22.312Z,100548.20
2019-04-25T20:26:26.603Z,100544.28
2019-04-25T20:31:30.818Z,100543.09
2019-04-25T20:36:35.076Z,100540.07
2019-04-25T20:41:39.375Z,100533.10
2019-04-25T20:46:43.462Z,100524.47
2019-04-25T20:51:48.466Z,100526.22
2019-04-25T20:56:53.023Z,100525.02
2019-04-25T21:01:57.748Z,100525.70
2019-04-25T21:07:01.764Z,100518.55
2019-04-25T21:12:06.507Z,100517.33
2019-04-25T21:17:10.529Z,100522.16
2019-04-25T21:22:15.410Z,100511.03
2019-04-25T21:27:19.930Z,100508.58
2019-04-25T21:32:24.518Z,100508.74
2019-04-25T21:37:29.071Z,100498.92
2019-04-25T21:42:34.378Z,100498.16
2019-04-25T21:47:40.707Z,100495.77
2019-04-25T21:52:46.055Z,100489.14
2019-04-25T21:57:50.773Z,100488.17
2019-04-25T22:02:56.245Z,100483.80
2019-04-25T22:08:00.520Z,100479.56
2019-04-25T22:13:11.954Z,100482.97
2019-04-25T22:18:10.680Z,100483.94
2019-04-25T22:23:27.080Z,100484.41
2019-04-25T22:28:32.068Z,100481.64
2019-04-25T22:33:36.351Z,100482.38
2019-04-25T22:38:40.365Z,100477.31
2019-04-25T22:43:44.414Z,100477.35
2019-04-25T22:48:49.329Z,100483.03
2019-04-25T22:53:53.672Z,100482.73
2019-04-25T22:58:57.760Z,100472.54
2019-04-25T23:04:01.153Z,100461.63
2019-04-25T23:09:06.781Z,100465.62
2019-04-25T23:14:10.980Z,100457.09
2019-04-25T23:19:15.365Z,100455.41
2019-04-25T23:24:19.579Z,100454.89
2019-04-25T23:29:30.652Z,100438.55
2019-04-25T23:34:35.026Z,100441.95
2019-04-25T23:39:39.059Z,100445.34
2019-04-25T23:44:43.135Z,100442.73
2019-04-25T23:49:47.146Z,100443.97
2019-04-25T23:55:02.060Z,100437.59
